createdAt,value
2022-10-11T00:01:15.629Z,101323.75
2022-10-11T00:03:45.436Z,101331.97
2022-10-11T00:06:15.262Z,101339.16
2022-10-11T00:08:45.151Z,101347.56
2022-10-11T00:11:15.011Z,101352.41
2022-10-11T00:13:47.726Z,101355.25
2022-10-11T00:16:20.023Z,101358.28
2022-10-11T00:18:52.736Z,101370.00
2022-10-11T00:21:25.509Z,101362.50
2022-10-11T00:23:55.503Z,101373.38
2022-10-11T00:26:30.160Z,101378.25
2022-10-11T00:29:02.670Z,101378.63
2022-10-11T00:31:35.823Z,101386.78
2022-10-11T00:34:08.412Z,101393.97
2022-10-11T00:36:38.320Z,101392.50
2022-10-11T00:39:08.774Z,101403.19
2022-10-11T00:41:39.000Z,101398.84
2022-10-11T00:44:23.278Z,101400.88
2022-10-11T00:46:56.347Z,101401.03
2022-10-11T00:49:35.611Z,101404.72
2022-10-11T00:52:09.996Z,101414.78
2022-10-11T00:54:44.604Z,101420.28
2022-10-11T00:57:19.000Z,101418.16
2022-10-11T00:59:55.171Z,101417.50
2022-10-11T01:02:26.553Z,101419.50
2022-10-11T01:05:18.031Z,101419.69
2022-10-11T01:07:48.302Z,101426.88
2022-10-11T01:10:18.369Z,101435.25
2022-10-11T01:13:04.573Z,101440.09
2022-10-11T01:15:43.208Z,101444.63
2022-10-11T01:18:18.053Z,101446.63
2022-10-11T01:20:58.189Z,101439.78
2022-10-11T01:23:54.411Z,101452.31
2022-10-11T01:27:08.716Z,101451.50
2022-10-11T01:29:49.519Z,101451.63
2022-10-11T01:32:27.334Z,101457.31
2022-10-11T01:35:04.875Z,101466.53
2022-10-11T01:37:38.899Z,101475.72
2022-10-11T01:40:12.533Z,101472.56
2022-10-11T01:42:44.539Z,101471.25
2022-10-11T01:45:19.061Z,101474.09
2022-10-11T01:48:04.157Z,101478.59
2022-10-11T01:50:39.704Z,101477.09
2022-10-11T01:53:25.394Z,101480.94
2022-10-11T01:56:00.094Z,101482.13
2022-10-11T01:58:39.355Z,101481.63
2022-10-11T02:01:18.515Z,101480.97
2022-10-11T02:03:58.123Z,101485.47
2022-10-11T02:06:35.825Z,101488.16
2022-10-11T02:09:13.907Z,101494.50
2022-10-11T02:11:44.713Z,101493.00
2022-10-11T02:14:19.380Z,101493.47
2022-10-11T02:16:54.049Z,101499.81
2022-10-11T02:19:34.667Z,101506.00
2022-10-11T02:22:08.955Z,101499.31
2022-10-11T02:24:42.886Z,101513.66
2022-10-11T02:27:14.304Z,101504.16
2022-10-11T02:29:48.160Z,101513.00
2022-10-11T02:32:20.204Z,101505.31
2022-10-11T02:34:56.679Z,101516.19
2022-10-11T02:37:33.882Z,101516.50
2022-10-11T02:40:13.559Z,101522.84
2022-10-11T02:42:47.961Z,101518.53
2022-10-11T02:45:22.089Z,101527.69
2022-10-11T02:47:52.598Z,101522.34
2022-10-11T02:50:25.735Z,101521.84
2022-10-11T02:52:55.530Z,101511.34
2022-10-11T02:55:25.412Z,101524.03
2022-10-11T02:57:55.580Z,101518.88
2022-10-11T03:00:25.732Z,101528.72
2022-10-11T03:02:55.456Z,101532.22
2022-10-11T03:05:27.884Z,101530.53
2022-10-11T03:07:57.726Z,101541.06
2022-10-11T03:10:28.430Z,101542.88
2022-10-11T03:12:58.217Z,101556.41
2022-10-11T03:15:28.110Z,101548.56
2022-10-11T03:17:58.127Z,101556.56
2022-10-11T03:20:30.656Z,101563.75
2022-10-11T03:23:00.436Z,101564.56
2022-10-11T03:25:33.512Z,101566.72
2022-10-11T03:28:03.265Z,101566.88
2022-10-11T03:30:33.301Z,101574.88
2022-10-11T03:33:03.450Z,101573.22
2022-10-11T03:35:36.024Z,101581.41
2022-10-11T03:38:06.393Z,101586.72
2022-10-11T03:40:37.504Z,101587.72
2022-10-11T03:43:07.322Z,101588.91
2022-10-11T03:45:37.172Z,101595.25
2022-10-11T03:48:07.410Z,101596.41
2022-10-11T03:50:40.131Z,101599.25
2022-10-11T03:53:12.345Z,101601.22
2022-10-11T03:55:42.976Z,101605.75
2022-10-11T03:58:12.749Z,101600.56
2022-10-11T04:00:42.633Z,101603.22
2022-10-11T04:03:12.406Z,101611.41
2022-10-11T04:05:44.860Z,101612.41
2022-10-11T04:08:14.634Z,101609.91
2022-10-11T04:10:44.716Z,101618.06
2022-10-11T04:13:15.099Z,101624.25
2022-10-11T04:15:44.981Z,101625.25
2022-10-11T04:18:14.837Z,101630.56
2022-10-11T04:20:47.476Z,101632.72
2022-10-11T04:23:17.258Z,101632.91
2022-10-11T04:25:48.387Z,101633.91
2022-10-11T04:28:18.277Z,101628.72
2022-10-11T04:30:48.115Z,101627.38
2022-10-11T04:33:17.941Z,101631.00
2022-10-11T04:35:50.367Z,101639.19
2022-10-11T04:38:20.174Z,101647.88
2022-10-11T04:40:49.963Z,101652.34
2022-10-11T04:43:20.700Z,101648.84
2022-10-11T04:45:55.252Z,101654.50
2022-10-11T04:48:25.334Z,101651.84
2022-10-11T04:50:58.025Z,101652.16
2022-10-11T04:53:27.991Z,101655.81
2022-10-11T04:56:02.136Z,101656.00
2022-10-11T04:58:33.150Z,101659.50
2022-10-11T05:01:03.368Z,101663.00
2022-10-11T05:03:33.329Z,101664.16
2022-10-11T05:06:07.490Z,101674.97
2022-10-11T05:08:37.436Z,101676.66
2022-10-11T05:11:09.228Z,101672.63
2022-10-11T05:13:39.469Z,101679.81
2022-10-11T05:16:11.365Z,101682.63
2022-10-11T05:18:42.179Z,101681.13
2022-10-11T05:21:19.774Z,101688.44
2022-10-11T05:23:51.582Z,101689.28
2022-10-11T05:26:22.353Z,101695.44
2022-10-11T05:28:52.493Z,101699.13
2022-10-11T05:31:22.525Z,101702.63
2022-10-11T05:33:52.285Z,101705.13
2022-10-11T05:36:24.846Z,101712.44
2022-10-11T05:38:54.595Z,101717.63
2022-10-11T05:41:24.680Z,101715.47
2022-10-11T05:43:54.431Z,101718.81
2022-10-11T05:46:26.908Z,101729.50
2022-10-11T05:48:56.723Z,101721.31
2022-10-11T05:51:29.195Z,101725.66
2022-10-11T05:53:59.003Z,101720.53
2022-10-11T05:56:29.556Z,101727.59
2022-10-11T05:59:02.363Z,101728.31
2022-10-11T06:01:32.739Z,101740.38
2022-10-11T06:04:02.646Z,101741.91
2022-10-11T06:06:35.133Z,101741.81
2022-10-11T06:09:07.436Z,101746.16
2022-10-11T06:11:37.569Z,101745.84
2022-10-11T06:14:08.295Z,101748.44
2022-10-11T06:16:38.242Z,101748.97
2022-10-11T06:19:08.132Z,101752.81
2022-10-11T06:21:40.542Z,101760.66
2022-10-11T06:24:10.785Z,101766.72
2022-10-11T06:26:40.947Z,101764.88
2022-10-11T06:29:11.131Z,101767.38
2022-10-11T06:31:40.934Z,101768.91
2022-10-11T06:34:10.672Z,101775.56
2022-10-11T06:36:43.083Z,101774.41
2022-10-11T06:39:12.852Z,101784.28
2022-10-11T06:41:42.691Z,101781.59
2022-10-11T06:44:14.452Z,101791.63
2022-10-11T06:46:44.418Z,101792.09
2022-10-11T06:49:15.533Z,101791.72
2022-10-11T06:51:49.577Z,101804.78
2022-10-11T06:54:19.334Z,101805.88
2022-10-11T06:56:49.095Z,101807.34
2022-10-11T06:59:18.928Z,101808.16
2022-10-11T07:01:48.851Z,101814.34
2022-10-11T07:04:18.694Z,101814.97
2022-10-11T07:06:53.387Z,101815.22
2022-10-11T07:09:23.237Z,101821.53
2022-10-11T07:11:52.991Z,101818.06
2022-10-11T07:14:22.772Z,101825.53
2022-10-11T07:16:52.510Z,101833.69
2022-10-11T07:19:22.432Z,101832.28
2022-10-11T07:21:54.876Z,101840.28
2022-10-11T07:24:24.800Z,101839.03
2022-10-11T07:26:54.608Z,101837.75
2022-10-11T07:29:24.519Z,101843.22
2022-10-11T07:31:54.372Z,101846.00
2022-10-11T07:34:24.363Z,101852.13
2022-10-11T07:36:56.716Z,101852.06
2022-10-11T07:39:26.529Z,101859.22
2022-10-11T07:41:56.257Z,101859.31
2022-10-11T07:44:25.985Z,101870.59
2022-10-11T07:46:55.762Z,101874.63
2022-10-11T07:49:25.575Z,101873.59
2022-10-11T07:51:57.866Z,101875.38
2022-10-11T07:54:27.633Z,101879.28
2022-10-11T07:56:57.451Z,101876.94
2022-10-11T07:59:27.248Z,101879.38
2022-10-11T08:01:57.071Z,101884.91
2022-10-11T08:04:26.928Z,101870.13
2022-10-11T08:06:59.269Z,101875.19
2022-10-11T08:09:29.525Z,101879.09
2022-10-11T08:11:59.505Z,101879.75
2022-10-11T08:14:29.213Z,101884.38
2022-10-11T08:16:58.973Z,101885.13
2022-10-11T08:19:28.751Z,101882.94
2022-10-11T08:22:01.098Z,101895.25
2022-10-11T08:24:33.527Z,101880.66
2022-10-11T08:27:17.617Z,101882.84
2022-10-11T08:29:57.689Z,101887.69
2022-10-11T08:32:40.465Z,101889.69
2022-10-11T08:35:20.601Z,101897.31
2022-10-11T08:38:03.309Z,101888.69
2022-10-11T08:40:49.527Z,101894.81
2022-10-11T08:43:38.844Z,101896.78
2022-10-11T08:46:24.470Z,101901.28
2022-10-11T08:49:05.262Z,101898.84
2022-10-11T08:51:48.941Z,101909.91
2022-10-11T08:54:42.843Z,101906.44
2022-10-11T08:57:25.124Z,101909.59
2022-10-11T09:00:00.428Z,101906.97
2022-10-11T09:03:06.946Z,101914.94
2022-10-11T09:05:37.969Z,101915.13
2022-10-11T09:08:24.166Z,101916.41
2022-10-11T09:11:14.019Z,101910.38
2022-10-11T09:14:26.628Z,101909.72
2022-10-11T09:17:14.624Z,101912.09
2022-10-11T09:20:10.719Z,101911.41
2022-10-11T09:22:59.238Z,101906.97
2022-10-11T09:25:50.352Z,101920.81
2022-10-11T09:28:31.087Z,101914.06
2022-10-11T09:31:01.712Z,101915.50
2022-10-11T09:33:36.360Z,101925.38
2022-10-11T09:36:19.284Z,101921.94
2022-10-11T09:38:54.539Z,101925.16
2022-10-11T09:41:32.103Z,101931.28
2022-10-11T09:44:05.123Z,101924.09
2022-10-11T09:46:39.303Z,101931.75
2022-10-11T09:49:14.116Z,101925.03
2022-10-11T09:51:47.664Z,101921.72
2022-10-11T09:54:17.512Z,101912.31
2022-10-11T09:56:48.924Z,101912.41
2022-10-11T09:59:29.564Z,101916.66
2022-10-11T10:02:24.683Z,101913.81
2022-10-11T10:05:06.373Z,101918.31
2022-10-11T10:07:38.071Z,101924.53
2022-10-11T10:10:32.305Z,101929.03
2022-10-11T10:13:04.649Z,101933.69
2022-10-11T10:15:38.621Z,101929.91
2022-10-11T10:18:10.594Z,101932.72
2022-10-11T10:20:41.064Z,101924.22
2022-10-11T10:23:13.798Z,101929.19
2022-10-11T10:25:43.875Z,101928.63
2022-10-11T10:28:24.137Z,101934.72
2022-10-11T10:30:59.969Z,101925.06
2022-10-11T10:33:34.108Z,101930.66
2022-10-11T10:36:10.124Z,101935.00
2022-10-11T10:38:48.647Z,101940.06
2022-10-11T10:41:22.509Z,101940.22
2022-10-11T10:43:55.560Z,101939.91
2022-10-11T10:46:46.064Z,101937.91
2022-10-11T10:49:48.388Z,101936.00
2022-10-11T10:52:35.844Z,101931.84
2022-10-11T10:55:16.883Z,101929.75
2022-10-11T10:57:59.736Z,101936.84
2022-10-11T11:00:36.905Z,101940.09
2022-10-11T11:03:12.736Z,101930.41
2022-10-11T11:05:50.527Z,101943.81
2022-10-11T11:08:34.690Z,101942.13
2022-10-11T11:11:11.151Z,101934.25
2022-10-11T11:13:47.872Z,101939.53
2022-10-11T11:16:26.449Z,101939.84
2022-10-11T11:19:09.129Z,101929.81
2022-10-11T11:21:50.390Z,101932.44
2022-10-11T11:24:32.130Z,101926.63
2022-10-11T11:27:09.177Z,101927.31
2022-10-11T11:29:55.322Z,101930.63
2022-10-11T11:32:37.146Z,101930.13
2022-10-11T11:35:14.974Z,101924.41
2022-10-11T11:37:47.719Z,101935.88
2022-10-11T11:40:20.685Z,101927.91
2022-10-11T11:42:53.754Z,101931.41
2022-10-11T11:45:27.640Z,101930.22
2022-10-11T11:48:04.805Z,101933.38
2022-10-11T11:50:45.960Z,101930.50
2022-10-11T11:53:19.099Z,101924.56
2022-10-11T11:55:57.160Z,101929.66
2022-10-11T11:58:38.139Z,101921.06
2022-10-11T12:01:17.943Z,101930.50
2022-10-11T12:03:51.059Z,101921.81
2022-10-11T12:07:04.042Z,101922.22
2022-10-11T12:09:33.244Z,101920.75
2022-10-11T12:12:06.888Z,101921.22
2022-10-11T12:14:41.962Z,101921.34
2022-10-11T12:17:19.187Z,101918.91
2022-10-11T12:20:09.512Z,101915.38
2022-10-11T12:22:55.264Z,101922.13
2022-10-11T12:26:18.945Z,101915.38
2022-10-11T12:29:18.578Z,101908.13
2022-10-11T12:31:51.938Z,101916.81
2022-10-11T12:34:37.882Z,101921.41
2022-10-11T12:37:37.837Z,101915.28
2022-10-11T12:40:47.041Z,101918.38
2022-10-11T12:43:55.649Z,101909.69
2022-10-11T12:46:49.307Z,101909.84
2022-10-11T12:49:29.645Z,101906.66
2022-10-11T12:52:03.573Z,101915.78
2022-10-11T12:55:06.087Z,101911.47
2022-10-11T12:58:10.059Z,101906.41
2022-10-11T13:00:46.675Z,101910.72
2022-10-11T13:03:32.828Z,101906.66
2022-10-11T13:06:03.533Z,101902.34
2022-10-11T13:08:40.373Z,101910.97
2022-10-11T13:11:20.354Z,101913.50
2022-10-11T13:13:58.250Z,101908.91
2022-10-11T13:16:30.590Z,101910.34
2022-10-11T13:19:02.718Z,101903.09
2022-10-11T13:21:36.258Z,101908.03
2022-10-11T13:24:14.583Z,101914.47
2022-10-11T13:26:45.822Z,101920.66
2022-10-11T13:29:23.947Z,101915.63
2022-10-11T13:31:53.859Z,101921.41
2022-10-11T13:34:24.545Z,101917.88
2022-10-11T13:36:58.543Z,101910.78
2022-10-11T13:39:31.870Z,101919.84
2022-10-11T13:42:03.718Z,101915.03
2022-10-11T13:44:38.671Z,101916.47
2022-10-11T13:47:09.046Z,101912.72
2022-10-11T13:49:41.303Z,101916.63
2022-10-11T13:52:23.818Z,101913.28
2022-10-11T13:55:01.263Z,101912.25
2022-10-11T13:57:38.673Z,101911.00
2022-10-11T14:00:30.677Z,101903.94
2022-10-11T14:03:05.198Z,101902.66
2022-10-11T14:05:38.540Z,101905.31
2022-10-11T14:08:10.707Z,101908.19
2022-10-11T14:10:40.553Z,101902.56
2022-10-11T14:13:25.757Z,101903.38
2022-10-11T14:16:10.250Z,101907.09
2022-10-11T14:18:45.524Z,101908.53
2022-10-11T14:21:37.918Z,101911.81
2022-10-11T14:24:10.689Z,101914.47
2022-10-11T14:26:42.479Z,101912.34
2022-10-11T14:29:17.503Z,101911.06
2022-10-11T14:31:50.119Z,101908.56
2022-10-11T14:34:22.995Z,101913.53
2022-10-11T14:36:54.092Z,101909.75
2022-10-11T14:39:26.174Z,101914.50
2022-10-11T14:41:56.656Z,101908.88
2022-10-11T14:44:26.529Z,101908.22
2022-10-11T14:46:59.101Z,101912.31
2022-10-11T14:49:32.344Z,101900.28
2022-10-11T14:52:02.332Z,101904.00
2022-10-11T14:54:33.281Z,101902.31
2022-10-11T14:57:08.495Z,101914.28
2022-10-11T14:59:39.760Z,101909.09
2022-10-11T15:02:14.408Z,101911.16
2022-10-11T15:04:44.262Z,101919.81
2022-10-11T15:07:15.543Z,101918.34
2022-10-11T15:09:45.314Z,101913.78
2022-10-11T15:12:15.117Z,101923.09
2022-10-11T15:14:44.922Z,101912.91
2022-10-11T15:17:17.480Z,101913.47
2022-10-11T15:19:47.599Z,101913.03
2022-10-11T15:22:17.487Z,101910.28
2022-10-11T15:24:51.520Z,101911.66
2022-10-11T15:27:25.457Z,101909.34
2022-10-11T15:29:55.224Z,101909.75
2022-10-11T15:32:27.783Z,101907.81
2022-10-11T15:34:57.515Z,101908.84
2022-10-11T15:37:27.479Z,101908.41
2022-10-11T15:39:57.280Z,101903.38
2022-10-11T15:42:27.102Z,101903.97
2022-10-11T15:44:56.938Z,101907.22
2022-10-11T15:47:29.361Z,101912.16
2022-10-11T15:49:59.225Z,101914.38
2022-10-11T15:52:29.169Z,101914.72
2022-10-11T15:54:58.977Z,101921.31
2022-10-11T15:57:28.795Z,101923.53
2022-10-11T15:59:59.229Z,101923.28
2022-10-11T16:02:31.928Z,101923.00
2022-10-11T16:05:01.918Z,101921.34
2022-10-11T16:07:31.981Z,101922.56
2022-10-11T16:10:01.748Z,101924.97
2022-10-11T16:12:31.514Z,101929.06
2022-10-11T16:15:01.444Z,101929.81
2022-10-11T16:17:36.865Z,101929.50
2022-10-11T16:20:08.132Z,101932.56
2022-10-11T16:22:38.667Z,101929.78
2022-10-11T16:25:08.609Z,101934.88
2022-10-11T16:27:38.520Z,101931.09
2022-10-11T16:30:13.958Z,101933.50
2022-10-11T16:32:46.900Z,101947.66
2022-10-11T16:35:19.122Z,101942.81
2022-10-11T16:37:52.014Z,101943.16
2022-10-11T16:40:23.638Z,101950.28
2022-10-11T16:42:53.631Z,101941.94
2022-10-11T16:45:23.520Z,101950.53
2022-10-11T16:47:55.995Z,101951.28
2022-10-11T16:50:26.306Z,101943.94
2022-10-11T16:53:03.705Z,101947.13
2022-10-11T16:55:33.471Z,101942.31
2022-10-11T16:58:03.311Z,101948.03
2022-10-11T17:00:33.134Z,101946.75
2022-10-11T17:03:05.543Z,101955.16
2022-10-11T17:05:35.371Z,101958.19
2022-10-11T17:08:05.393Z,101957.06
2022-10-11T17:10:44.508Z,101966.50
2022-10-11T17:13:14.349Z,101964.34
2022-10-11T17:15:44.231Z,101960.31
2022-10-11T17:18:16.668Z,101962.72
2022-10-11T17:20:46.903Z,101959.72
2022-10-11T17:23:16.762Z,101969.13
2022-10-11T17:25:47.921Z,101964.09
2022-10-11T17:28:17.827Z,101968.97
2022-10-11T17:30:55.926Z,101965.16
2022-10-11T17:33:31.591Z,101966.34
2022-10-11T17:36:04.877Z,101965.22
2022-10-11T17:38:35.044Z,101967.19
2022-10-11T17:41:09.476Z,101978.28
2022-10-11T17:43:39.434Z,101973.28
2022-10-11T17:46:10.125Z,101974.63
2022-10-11T17:48:44.686Z,101974.16
2022-10-11T17:51:22.812Z,101977.34
2022-10-11T17:53:53.584Z,101969.00
2022-10-11T17:56:31.318Z,101977.56
2022-10-11T17:59:03.603Z,101972.56
2022-10-11T18:01:33.522Z,101972.91
2022-10-11T18:04:10.394Z,101969.69
2022-10-11T18:06:43.584Z,101971.53
2022-10-11T18:09:15.266Z,101972.91
2022-10-11T18:11:45.738Z,101974.91
2022-10-11T18:14:15.964Z,101967.38
2022-10-11T18:17:01.336Z,101968.75
2022-10-11T18:19:33.742Z,101967.91
2022-10-11T18:22:07.014Z,101969.94
2022-10-11T18:24:37.515Z,101971.09
2022-10-11T18:27:07.483Z,101974.31
2022-10-11T18:29:37.363Z,101979.84
2022-10-11T18:32:07.249Z,101971.31
2022-10-11T18:34:39.752Z,101970.78
2022-10-11T18:37:09.490Z,101971.94
2022-10-11T18:39:39.287Z,101973.09
2022-10-11T18:42:09.797Z,101970.94
2022-10-11T18:44:39.609Z,101971.44
2022-10-11T18:47:09.431Z,101972.28
2022-10-11T18:49:41.920Z,101975.47
2022-10-11T18:52:12.508Z,101965.28
2022-10-11T18:54:42.570Z,101969.13
2022-10-11T18:57:12.537Z,101967.63
2022-10-11T18:59:42.443Z,101968.09
2022-10-11T19:02:13.789Z,101963.09
2022-10-11T19:04:52.537Z,101967.78
2022-10-11T19:07:26.783Z,101966.28
2022-10-11T19:09:56.719Z,101964.75
2022-10-11T19:12:26.587Z,101973.13
2022-10-11T19:14:57.344Z,101976.16
2022-10-11T19:17:27.376Z,101964.78
2022-10-11T19:19:59.817Z,101967.78
2022-10-11T19:22:29.615Z,101958.06
2022-10-11T19:24:59.409Z,101962.75
2022-10-11T19:27:30.630Z,101964.09
2022-10-11T19:30:00.530Z,101959.91
2022-10-11T19:32:30.406Z,101961.09
2022-10-11T19:35:02.787Z,101962.38
2022-10-11T19:37:33.033Z,101964.22
2022-10-11T19:40:05.933Z,101963.56
2022-10-11T19:42:35.899Z,101963.72
2022-10-11T19:45:08.306Z,101963.06
2022-10-11T19:47:40.188Z,101960.38
2022-10-11T19:50:13.053Z,101957.03
2022-10-11T19:52:48.411Z,101966.91
2022-10-11T19:55:18.363Z,101964.72
2022-10-11T19:57:48.116Z,101965.84
2022-10-11T20:00:19.051Z,101968.19
2022-10-11T20:02:48.915Z,101970.69
2022-10-11T20:05:21.577Z,101970.19
2022-10-11T20:07:51.687Z,101971.34
2022-10-11T20:10:25.188Z,101961.00
2022-10-11T20:12:54.976Z,101979.50
2022-10-11T20:15:24.712Z,101979.31
2022-10-11T20:17:54.499Z,101977.81
2022-10-11T20:20:27.202Z,101974.63
2022-10-11T20:22:57.506Z,101973.09
2022-10-11T20:25:27.318Z,101980.47
2022-10-11T20:27:57.211Z,101972.75
2022-10-11T20:30:27.169Z,101977.59
2022-10-11T20:33:07.231Z,101980.06
2022-10-11T20:35:39.955Z,101980.41
2022-10-11T20:38:09.722Z,101977.56
2022-10-11T20:40:42.866Z,101983.22
2022-10-11T20:43:14.149Z,101989.56
2022-10-11T20:45:44.506Z,101985.06
2022-10-11T20:48:14.539Z,101985.19
2022-10-11T20:50:49.468Z,101988.19
2022-10-11T20:53:19.219Z,101984.69
2022-10-11T20:55:49.181Z,101985.16
2022-10-11T20:58:19.711Z,101989.84
2022-10-11T21:00:50.199Z,101983.81
2022-10-11T21:03:20.603Z,101981.47
2022-10-11T21:06:00.730Z,101985.13
2022-10-11T21:08:30.469Z,101986.28
2022-10-11T21:11:00.321Z,101991.13
2022-10-11T21:13:34.020Z,101980.06
2022-10-11T21:16:08.063Z,101987.72
2022-10-11T21:18:37.795Z,101984.38
2022-10-11T21:21:12.343Z,101988.31
2022-10-11T21:23:42.498Z,101986.50
2022-10-11T21:26:14.833Z,101995.66
2022-10-11T21:28:44.762Z,101999.47
2022-10-11T21:31:18.259Z,101997.25
2022-10-11T21:33:48.547Z,101993.91
2022-10-11T21:36:25.046Z,102000.03
2022-10-11T21:38:56.031Z,102003.00
2022-10-11T21:41:29.137Z,102003.16
2022-10-11T21:43:59.246Z,102000.50
2022-10-11T21:49:21.943Z,101998.44
2022-10-11T21:51:54.587Z,101994.41
2022-10-11T21:54:24.396Z,101995.41
2022-10-11T21:56:54.415Z,101998.38
2022-10-11T21:59:24.283Z,101997.53
2022-10-11T22:01:58.075Z,101996.16
2022-10-11T22:04:30.606Z,101995.63
2022-10-11T22:07:03.130Z,101991.59
2022-10-11T22:09:35.034Z,101997.09
2022-10-11T22:12:05.016Z,102001.06
2022-10-11T22:14:37.600Z,101993.91
2022-10-11T22:17:07.355Z,101991.53
2022-10-11T22:19:37.215Z,101997.72
2022-10-11T22:22:09.571Z,101985.50
2022-10-11T22:24:39.364Z,101988.88
2022-10-11T22:27:09.212Z,101992.38
2022-10-11T22:29:39.158Z,101987.19
2022-10-11T22:32:11.597Z,101989.16
2022-10-11T22:34:41.468Z,101990.16
2022-10-11T22:37:13.986Z,101996.81
2022-10-11T22:39:43.802Z,101988.94
2022-10-11T22:42:13.687Z,101992.91
2022-10-11T22:44:43.461Z,101992.50
2022-10-11T22:47:13.237Z,101988.47
2022-10-11T22:49:43.052Z,101986.09
2022-10-11T22:52:18.122Z,101985.72
2022-10-11T22:54:48.142Z,101984.88
2022-10-11T22:57:18.277Z,101980.56
2022-10-11T22:59:48.376Z,101991.53
2022-10-11T23:02:18.282Z,101987.19
2022-10-11T23:04:48.276Z,101982.84
2022-10-11T23:07:22.884Z,101981.84
2022-10-11T23:09:52.724Z,101988.00
2022-10-11T23:12:22.606Z,101989.00
2022-10-11T23:14:52.405Z,101983.28
2022-10-11T23:17:22.415Z,101985.28
2022-10-11T23:19:52.745Z,101982.06
2022-10-11T23:22:25.211Z,101984.88
2022-10-11T23:24:55.687Z,101984.03
2022-10-11T23:27:25.510Z,101987.69
2022-10-11T23:29:56.022Z,101992.31
2022-10-11T23:32:26.048Z,101994.28
2022-10-11T23:34:56.065Z,101989.53
2022-10-11T23:37:30.941Z,101986.47
2022-10-11T23:40:01.537Z,101991.28
2022-10-11T23:42:31.392Z,102001.41
2022-10-11T23:45:01.407Z,101999.03
2022-10-11T23:47:31.298Z,101994.00
2022-10-11T23:50:01.095Z,102000.31
2022-10-11T23:52:33.487Z,102003.28
2022-10-11T23:55:05.187Z,101997.94
2022-10-11T23:57:35.257Z,102001.75
